Ride Results

Landsborough Endurance Ride (13-08-2011)
Ride distance: 80.0 km

Outcomes - Landsborough Endurance Ride (13-08-2011)
Division No. of Entries Retired / DNE Completed Withdrawn Ineligible V/O Percentage Completed
HW 8 - 5 - - 3 62.50%
MW 20 - 17 1 - 2 85.00%
LW 11 - 9 - - 2 81.82%
JN 2 - 2 - - - 100.00%
Totals 41 - 33 1 - 7 80.49%
Results - Landsborough Endurance Ride (13-08-2011)
No. Rider Horse Place Time Leg Speeds Total
Km/Hr
H/R bpm
Heavyweight
82 Jarrod Robinson Zahinda Chickenonachain 1 6:12:00 13.1, 12.6 12.90 40, 52, 48 (Avg:50)
216 Kristina Meskauskaite Castlebar Jumeirah 2 6:58:00 11.1, 11.8 11.48 32, 40, 45 (Avg:42)
290 Stephanie Cooper Star of Courage 3 7:01:00 12.1, 10.7 11.40 32, 42, 46 (Avg:44)
313 Dom Falcomer Beautiful 4 7:16:00 11.5, 10.4 11.01 42, 44, 37 (Avg:40)
337 Allison Whitney Al-Kareeme B'Dazzled 4 7:16:00 11.5, 10.4 11.01 42, 46, 44 (Avg:45)
225 Ray Heinrich Brookman Park Wizard Lame L2 0:00:00 14.8, 13.7 - 34, 52, 59 (Avg:55)
62 Leah Leishman Gragar Silver Salik Lame L2 0:00:00 10.2, 8.6 - 32, 53, 42 (Avg:47)
58 Dianne Tobin Chimera Lame L2 0:00:00 10.2, 8.6 - 37, 44, 56 (Avg:50)
Middleweight
42 Hans Peuker Marybank Celia 1 (BC) 4:45:00 17.7, 15.9 16.84 28, 42, 48 (Avg:45)
220 Danny Ellerton Fiesal 2 5:17:00 17.9, 13.1 15.14 33, 48, 52 (Avg:50)
215 Kim Fitzpatrick Cieanna 2 5:17:00 17.1, 13.5 15.14 32, 42, 48 (Avg:45)
53 Beverley Rayner-Mason Ainslie Ribbon 4 5:39:00 14.1, 14.2 14.16 32, 42, 58 (Avg:50)
84 Kristie Taprell Castlebar Tempest 4 5:39:00 13.9, 14.3 14.16 37, 42, 43 (Avg:42)
56 Wendy Bootle Blue Bopp 6 6:12:00 14.1, 11.8 12.90 26, 40, 49 (Avg:44)
126 Wendy Riha Castlebar Tailwind 7 6:58:00 11.1, 11.8 11.48 30, 40, 43 (Avg:41)
758 Rachael Laidlaw Bushies Luthien 8 7:01:00 12.1, 10.7 11.40 37, 41, 46 (Avg:43)
107 Jo Brock Im Not Shy (Lady) 9 7:03:00 13.9, 9.5 11.35 36, 50, 48 (Avg:49)
44 Vanessa Smith Dunbraeton Narla 9 7:03:00 13.9, 9.5 11.35 36, 54, 42 (Avg:48)
164 Gillian Chapman Zharion 11 7:06:00 11.6, 10.9 11.27 34, 40, 46 (Avg:43)
351 Steve Blackhurst Drumlin Hobart 12 7:16:00 11.7, 10.3 11.01 30, 38, 45 (Avg:41)
69 Sue Cavill Koonwarra Kavalier 12 7:16:00 11.8, 10.3 11.01 30, 40, 48 (Avg:44)
181 Sharee Court Makaveli Soulja 12 7:16:00 11.8, 10.3 11.01 34, 48, 52 (Avg:50)
89 Sheryl Herbert Just Shakira 12 7:16:00 11.8, 10.3 11.01 26, 42, 46 (Avg:44)
219 Caroline Noble Rivergum Delight 12 7:16:00 11.7, 10.3 11.01 36, 43, 52 (Avg:47)
190 Tracey Stoneman Rowallan Nara 12 7:16:00 11.7, 10.3 11.01 26, 38, 40 (Avg:39)
300 Sue Baillie Cavanagh Felix Lame L2 0:00:00 13.1, 11.2 - 36, 51, 58 (Avg:54)
77 Trish Reeves Al Bahir Lame L2 0:00:00 11.1, 9.7 - 32, 37, 58 (Avg:47)
13 Linda Tanian Castlebar Kaos Withdrawn L1 0:00:00 - - 30, 45 (Avg:45)
Lightweight
91 Kim Noble Tiawarra Ramy 1 (BC) 5:19:00 16.1, 14.1 15.05 38, 40, 46 (Avg:43)
744 Jessica Aistrope Highland View Taz 2 5:37:00 14.8, 13.7 14.24 32, 48, 56 (Avg:52)
752 Jess Welsh Pyrenees Khan 3 5:39:00 14.1, 14.2 14.16 32, 42, 44 (Avg:43)
11 Rohan Stanes Silhouette Rajah 4 6:12:00 13.1, 12.6 12.90 36, 41, 48 (Avg:44)
151 Kasey Thomas Yalandra Charisma 5 7:03:00 11.3, 11.3 11.35 28, 39, 44 (Avg:41)
183 Nicky Robinson Sterling Nakeeta 6 7:06:00 11.6, 10.9 11.27 35, 42, 46 (Avg:44)
230 Rebecca Stoneman El Raz Naarkeeta 7 7:16:00 11.7, 10.3 11.01 32, 33, 40 (Avg:36)
61 Lois Sharam Musical Gully Carousel 8 7:41:00 11.1, 9.7 10.41 26, 40, 54 (Avg:47)
745 Leanne Wyllie DunBraeton Nova 8 7:41:00 11.1, 9.7 10.41 40, 48, 47 (Avg:47)
18 Michelle Cranston Twin Peaks Kenny Karaoke Lame L2 0:00:00 10.2, 11.0 - 34, 40, 46 (Avg:43)
49 Jessica Remfry Max Lame L2 0:00:00 11.8, 10.3 - 34, 41, 44 (Avg:42)
Junior
90 Samantha Noble Springridge Bungendore 1 (BC) 5:19:00 16.1, 14.1 15.05 36, 48, 48 (Avg:48)
148 Allen Mackenzie LadyBlaze 2 6:29:00 11.3, 13.4 12.34 39, 46, 55 (Avg:50)